createdAt,value
2019-05-26T00:01:56.366Z,87.87
2019-05-26T00:04:23.095Z,88.07
2019-05-26T00:06:50.022Z,88.24
2019-05-26T00:09:16.842Z,88.18
2019-05-26T00:11:43.546Z,88.12
2019-05-26T00:14:10.360Z,87.81
2019-05-26T00:16:37.075Z,87.86
2019-05-26T00:19:03.982Z,87.90
2019-05-26T00:21:30.782Z,87.79
2019-05-26T00:23:57.562Z,87.74
2019-05-26T00:26:24.270Z,87.25
2019-05-26T00:28:51.166Z,87.41
2019-05-26T00:31:18.025Z,87.29
2019-05-26T00:33:44.797Z,87.42
2019-05-26T00:36:11.626Z,87.48
2019-05-26T00:38:38.321Z,87.28
2019-05-26T00:41:05.143Z,87.22
2019-05-26T00:43:31.861Z,87.14
2019-05-26T00:45:59.646Z,87.18
2019-05-26T00:48:26.433Z,87.31
2019-05-26T00:50:53.191Z,87.51
2019-05-26T00:53:20.005Z,87.67
2019-05-26T00:55:46.998Z,87.50
2019-05-26T00:58:13.769Z,87.91
2019-05-26T01:00:41.611Z,87.68
2019-05-26T01:03:09.999Z,87.89
2019-05-26T01:05:37.062Z,87.66
2019-05-26T01:08:06.725Z,87.61
2019-05-26T01:10:35.581Z,88.21
2019-05-26T01:13:03.741Z,88.25
2019-05-26T01:15:30.631Z,88.34
2019-05-26T01:17:57.710Z,88.58
2019-05-26T01:20:24.581Z,88.60
2019-05-26T01:22:53.807Z,88.85
2019-05-26T01:25:20.074Z,89.12
2019-05-26T01:27:47.902Z,89.04
2019-05-26T01:30:15.100Z,88.79
2019-05-26T01:32:41.802Z,88.46
2019-05-26T01:35:08.782Z,88.54
2019-05-26T01:37:37.273Z,88.66
2019-05-26T01:40:06.373Z,88.56
2019-05-26T01:42:33.225Z,88.70
2019-05-26T01:45:00.019Z,88.45
2019-05-26T01:47:27.920Z,88.42
2019-05-26T01:49:54.693Z,88.50
2019-05-26T01:52:21.403Z,88.64
2019-05-26T01:54:48.197Z,88.52
2019-05-26T01:57:14.997Z,88.32
2019-05-26T01:59:41.974Z,88.32
2019-05-26T02:02:08.818Z,88.04
2019-05-26T02:04:35.596Z,87.71
2019-05-26T02:07:02.339Z,87.51
2019-05-26T02:09:29.115Z,87.78
2019-05-26T02:11:56.010Z,87.75
2019-05-26T02:14:23.858Z,87.84
2019-05-26T02:16:50.568Z,88.16
2019-05-26T02:19:17.345Z,88.24
2019-05-26T02:21:44.145Z,88.13
2019-05-26T02:24:10.860Z,88.46
2019-05-26T02:26:37.662Z,88.77
2019-05-26T02:29:04.603Z,89.08
2019-05-26T02:31:31.548Z,89.34
2019-05-26T02:33:58.507Z,89.36
2019-05-26T02:36:25.345Z,89.38
2019-05-26T02:39:01.777Z,89.10
2019-05-26T02:41:21.075Z,89.11
2019-05-26T02:43:47.868Z,89.26
2019-05-26T02:46:14.582Z,88.96
2019-05-26T02:48:41.395Z,88.86
2019-05-26T02:51:08.113Z,88.89
2019-05-26T02:53:34.868Z,88.92
2019-05-26T02:56:01.630Z,88.68
2019-05-26T02:58:28.328Z,88.65
2019-05-26T03:00:54.991Z,88.65
2019-05-26T03:03:22.207Z,88.66
2019-05-26T03:05:50.216Z,88.52
2019-05-26T03:08:17.293Z,88.69
2019-05-26T03:10:44.356Z,88.63
2019-05-26T03:13:15.096Z,88.82
2019-05-26T03:15:43.524Z,88.90
2019-05-26T03:18:10.279Z,88.91
2019-05-26T03:20:39.407Z,89.14
2019-05-26T03:23:07.640Z,88.90
2019-05-26T03:25:36.462Z,88.58
2019-05-26T03:28:06.626Z,88.39
2019-05-26T03:30:34.223Z,88.21
2019-05-26T03:33:01.198Z,88.38
2019-05-26T03:35:28.349Z,88.45
2019-05-26T03:37:55.060Z,88.12
2019-05-26T03:40:21.974Z,87.94
2019-05-26T03:42:48.657Z,88.32
2019-05-26T03:45:39.781Z,88.34
2019-05-26T03:48:06.545Z,88.64
2019-05-26T03:50:33.271Z,88.69
2019-05-26T03:53:01.136Z,88.50
2019-05-26T03:55:27.938Z,88.34
2019-05-26T03:57:54.654Z,84.84
2019-05-26T04:00:21.614Z,85.70
2019-05-26T04:02:48.318Z,84.39
2019-05-26T04:05:15.129Z,85.80
2019-05-26T04:07:42.154Z,86.25
2019-05-26T04:10:09.328Z,85.89
2019-05-26T04:12:36.036Z,86.67
2019-05-26T04:15:05.790Z,87.06
2019-05-26T04:17:32.533Z,86.23
2019-05-26T04:19:59.317Z,85.47
2019-05-26T04:22:26.069Z,83.34
2019-05-26T04:24:52.843Z,83.35
2019-05-26T04:27:19.748Z,85.21
2019-05-26T04:29:47.630Z,85.48
2019-05-26T04:32:14.419Z,85.83
2019-05-26T04:34:41.111Z,85.88
2019-05-26T04:37:07.901Z,86.44
2019-05-26T04:39:34.618Z,86.60
2019-05-26T04:42:02.081Z,85.64
2019-05-26T04:44:29.964Z,84.07
2019-05-26T04:46:56.680Z,84.93
2019-05-26T04:49:24.108Z,85.05
2019-05-26T04:51:50.946Z,85.17
2019-05-26T04:54:17.618Z,83.31
2019-05-26T04:56:44.497Z,81.98
2019-05-26T04:59:11.257Z,81.19
2019-05-26T05:01:37.974Z,79.46
2019-05-26T05:04:04.790Z,79.08
2019-05-26T05:06:31.504Z,79.53
2019-05-26T05:08:58.272Z,80.17
2019-05-26T05:11:25.093Z,77.98
2019-05-26T05:13:51.817Z,76.98
2019-05-26T05:16:18.593Z,76.93
2019-05-26T05:18:45.364Z,78.87
2019-05-26T05:21:12.268Z,79.46
2019-05-26T05:23:39.014Z,78.42
2019-05-26T05:26:05.783Z,75.43
2019-05-26T05:28:32.566Z,74.98
2019-05-26T05:30:59.305Z,70.11
2019-05-26T05:33:25.993Z,68.28
2019-05-26T05:35:54.010Z,65.10
2019-05-26T05:38:20.781Z,63.37
2019-05-26T05:40:58.868Z,62.40
2019-05-26T05:43:16.212Z,64.31
2019-05-26T05:45:43.056Z,67.33
2019-05-26T05:48:09.777Z,62.55
2019-05-26T05:50:39.159Z,64.34
2019-05-26T05:53:05.328Z,66.80
2019-05-26T05:55:32.016Z,63.05
2019-05-26T05:57:58.690Z,64.35
2019-05-26T06:00:25.450Z,67.21
2019-05-26T06:02:52.271Z,65.48
2019-05-26T06:05:18.991Z,67.90
2019-05-26T06:07:45.854Z,65.88
2019-05-26T06:10:12.756Z,68.06
2019-05-26T06:12:39.434Z,64.72
2019-05-26T06:15:08.896Z,64.87
2019-05-26T06:17:36.589Z,65.61
2019-05-26T06:20:05.654Z,65.69
2019-05-26T06:22:32.493Z,64.53
2019-05-26T06:24:59.200Z,63.89
2019-05-26T06:27:25.916Z,62.33
2019-05-26T06:29:58.740Z,63.90
2019-05-26T06:32:21.296Z,63.87
2019-05-26T06:34:48.162Z,64.19
2019-05-26T06:37:14.961Z,60.20
2019-05-26T06:39:41.741Z,60.11
2019-05-26T06:42:08.513Z,63.20
2019-05-26T06:44:52.024Z,63.03
2019-05-26T06:47:05.183Z,60.58
2019-05-26T06:49:31.950Z,61.33
2019-05-26T06:51:58.766Z,62.71
2019-05-26T06:54:25.485Z,60.53
2019-05-26T06:56:52.334Z,62.31
2019-05-26T06:59:19.139Z,60.01
2019-05-26T07:01:45.864Z,61.24
2019-05-26T07:04:12.708Z,62.75
2019-05-26T07:06:39.435Z,64.65
2019-05-26T07:09:06.444Z,62.90
2019-05-26T07:11:47.125Z,64.95
2019-05-26T07:14:02.166Z,61.67
2019-05-26T07:16:38.255Z,62.46
2019-05-26T07:18:58.532Z,62.30
2019-05-26T07:21:25.234Z,60.49
2019-05-26T07:23:52.112Z,61.37
2019-05-26T07:26:18.915Z,62.05
2019-05-26T07:28:45.614Z,58.71
2019-05-26T07:31:12.455Z,59.30
2019-05-26T07:33:39.225Z,60.34
2019-05-26T07:36:05.900Z,58.28
2019-05-26T07:38:33.746Z,58.59
2019-05-26T07:41:00.441Z,60.30
2019-05-26T07:43:28.094Z,59.06
2019-05-26T07:45:55.526Z,58.37
2019-05-26T07:48:22.258Z,59.15
2019-05-26T07:50:48.973Z,59.51
2019-05-26T07:53:15.743Z,56.75
2019-05-26T07:55:42.630Z,58.48
2019-05-26T07:58:09.394Z,54.61
2019-05-26T08:00:36.223Z,58.97
2019-05-26T08:03:03.139Z,57.61
2019-05-26T08:05:29.824Z,56.50
2019-05-26T08:08:11.596Z,56.37
2019-05-26T08:10:25.212Z,56.90
2019-05-26T08:12:51.981Z,56.43
2019-05-26T08:15:19.218Z,56.61
2019-05-26T08:17:45.971Z,54.53
2019-05-26T08:20:13.470Z,54.86
2019-05-26T08:22:40.339Z,57.37
2019-05-26T08:25:07.827Z,58.18
2019-05-26T08:27:34.945Z,57.24
2019-05-26T08:30:01.816Z,55.92
2019-05-26T08:32:28.808Z,55.26
2019-05-26T08:34:55.498Z,55.93
2019-05-26T08:37:22.607Z,54.87
2019-05-26T08:39:49.396Z,54.95
2019-05-26T08:42:26.946Z,55.90
2019-05-26T08:44:44.847Z,58.75
2019-05-26T08:47:11.606Z,59.77
2019-05-26T08:49:38.295Z,58.86
2019-05-26T08:52:05.051Z,55.72
2019-05-26T08:54:31.840Z,53.65
2019-05-26T08:56:58.825Z,56.40
2019-05-26T08:59:25.614Z,56.90
2019-05-26T09:01:52.281Z,55.08
2019-05-26T09:04:18.964Z,55.04
2019-05-26T09:06:45.917Z,53.40
2019-05-26T09:09:13.775Z,56.46
2019-05-26T09:11:40.722Z,52.69
2019-05-26T09:14:07.593Z,56.68
2019-05-26T09:19:01.253Z,52.62
2019-05-26T09:21:28.338Z,52.09
2019-05-26T09:23:55.147Z,51.44
2019-05-26T09:26:21.911Z,50.77
2019-05-26T09:28:48.694Z,50.00
2019-05-26T09:31:15.375Z,51.18
2019-05-26T09:33:42.075Z,51.39
2019-05-26T09:36:08.921Z,55.91
2019-05-26T09:38:35.691Z,53.79
2019-05-26T09:41:02.707Z,49.22
2019-05-26T09:43:29.495Z,51.32
2019-05-26T09:45:56.178Z,52.28
2019-05-26T09:48:22.927Z,53.46
2019-05-26T09:50:49.738Z,54.55
2019-05-26T09:53:16.467Z,52.77
2019-05-26T09:55:44.270Z,54.48
2019-05-26T09:58:11.106Z,52.03
2019-05-26T10:00:38.018Z,47.86
2019-05-26T10:03:04.804Z,50.50
2019-05-26T10:05:31.650Z,50.28
2019-05-26T10:07:58.515Z,50.28
2019-05-26T10:10:25.213Z,48.75
2019-05-26T10:12:52.030Z,49.95
2019-05-26T10:15:19.014Z,50.59
2019-05-26T10:17:45.714Z,45.48
2019-05-26T10:20:12.685Z,46.82
2019-05-26T10:22:39.452Z,47.09
2019-05-26T10:25:06.513Z,47.74
2019-05-26T10:27:33.217Z,48.36
2019-05-26T10:30:00.009Z,45.13
2019-05-26T10:32:26.791Z,48.06
2019-05-26T10:34:53.552Z,49.17
2019-05-26T10:37:20.330Z,49.25
2019-05-26T10:39:47.367Z,49.97
2019-05-26T10:42:14.329Z,44.06
2019-05-26T10:44:41.088Z,44.77
2019-05-26T10:47:07.967Z,49.62
2019-05-26T10:49:35.866Z,47.42
2019-05-26T10:52:02.608Z,52.90
2019-05-26T10:54:29.378Z,45.64
2019-05-26T10:56:56.444Z,49.08
2019-05-26T10:59:24.296Z,49.29
2019-05-26T11:01:51.090Z,49.03
2019-05-26T11:04:17.836Z,48.01
2019-05-26T11:06:44.767Z,46.76
2019-05-26T11:09:11.456Z,46.06
2019-05-26T11:11:38.148Z,49.61
2019-05-26T11:14:04.960Z,45.70
2019-05-26T11:16:31.725Z,47.37
2019-05-26T11:18:58.471Z,52.48
2019-05-26T11:21:25.191Z,46.99
2019-05-26T11:23:51.875Z,50.82
2019-05-26T11:26:18.902Z,48.38
2019-05-26T11:28:45.569Z,47.88
2019-05-26T11:31:12.553Z,44.32
2019-05-26T11:33:39.248Z,45.54
2019-05-26T11:36:05.986Z,45.43
2019-05-26T11:38:33.789Z,46.91
2019-05-26T11:41:00.826Z,47.68
2019-05-26T11:43:27.631Z,49.66
2019-05-26T11:45:54.348Z,44.85
2019-05-26T11:48:21.120Z,45.68
2019-05-26T11:50:47.868Z,50.64
2019-05-26T11:53:14.549Z,43.23
2019-05-26T11:55:42.472Z,46.66
2019-05-26T11:58:09.343Z,48.15
2019-05-26T12:00:36.176Z,45.41
2019-05-26T12:03:02.963Z,50.67
2019-05-26T12:05:29.711Z,44.80
2019-05-26T12:07:56.442Z,44.81
2019-05-26T12:10:23.333Z,46.26
2019-05-26T12:12:50.348Z,51.11
2019-05-26T12:15:17.422Z,53.28
2019-05-26T12:17:44.124Z,52.43
2019-05-26T12:20:11.478Z,50.56
2019-05-26T12:22:38.401Z,48.39
2019-05-26T12:25:07.210Z,47.59
2019-05-26T12:27:33.981Z,51.01
2019-05-26T12:30:00.760Z,46.42
2019-05-26T12:32:27.569Z,44.47
2019-05-26T12:34:54.293Z,46.54
2019-05-26T12:37:21.182Z,47.33
2019-05-26T12:39:47.890Z,47.11
2019-05-26T12:42:17.008Z,50.18
2019-05-26T12:44:49.458Z,48.62
2019-05-26T12:47:12.975Z,47.91
2019-05-26T12:49:39.718Z,48.54
2019-05-26T12:52:06.848Z,45.73
2019-05-26T12:54:33.547Z,49.26
2019-05-26T12:57:00.335Z,49.54
2019-05-26T12:59:27.070Z,51.20
2019-05-26T13:01:53.789Z,48.63
2019-05-26T13:04:20.551Z,52.90
2019-05-26T13:06:47.242Z,49.95
2019-05-26T13:09:14.394Z,53.71
2019-05-26T13:11:41.172Z,51.23
2019-05-26T13:14:07.849Z,48.47
2019-05-26T13:16:35.910Z,50.05
2019-05-26T13:19:03.558Z,47.66
2019-05-26T13:21:30.279Z,51.01
2019-05-26T13:23:57.065Z,49.28
2019-05-26T13:26:23.875Z,50.79
2019-05-26T13:28:50.568Z,49.29
2019-05-26T13:31:17.330Z,47.44
2019-05-26T13:33:44.144Z,48.13
2019-05-26T13:36:10.844Z,45.87
2019-05-26T13:38:37.572Z,45.05
2019-05-26T13:41:04.331Z,45.17
2019-05-26T13:43:31.070Z,47.66
2019-05-26T13:45:57.814Z,45.09
2019-05-26T13:48:24.698Z,47.52
2019-05-26T13:50:51.507Z,44.95
2019-05-26T13:53:18.293Z,46.66
2019-05-26T13:55:45.092Z,47.17
2019-05-26T13:58:11.753Z,48.54
2019-05-26T14:00:38.440Z,47.08
2019-05-26T14:03:05.563Z,48.60
2019-05-26T14:05:32.332Z,49.71
2019-05-26T14:07:59.079Z,47.86
2019-05-26T14:10:31.325Z,48.99
2019-05-26T14:12:59.160Z,46.07
2019-05-26T14:15:37.178Z,44.56
2019-05-26T14:17:56.812Z,48.06
2019-05-26T14:20:27.263Z,51.00
2019-05-26T14:22:53.985Z,48.14
2019-05-26T14:25:20.742Z,50.97
2019-05-26T14:27:47.531Z,50.56
2019-05-26T14:30:14.391Z,51.98
2019-05-26T14:32:41.268Z,48.80
2019-05-26T14:35:08.285Z,48.06
2019-05-26T14:37:35.084Z,50.55
2019-05-26T14:40:02.726Z,47.85
2019-05-26T14:42:29.509Z,48.90
2019-05-26T14:44:56.323Z,55.67
2019-05-26T14:47:23.157Z,52.18
2019-05-26T14:49:49.874Z,53.12
2019-05-26T14:52:16.581Z,49.53
2019-05-26T14:54:43.330Z,56.93
2019-05-26T14:57:10.317Z,54.46
2019-05-26T14:59:37.108Z,54.54
2019-05-26T15:02:03.968Z,57.63
2019-05-26T15:04:31.303Z,56.19
2019-05-26T15:06:58.114Z,58.59
2019-05-26T15:09:25.623Z,51.86
2019-05-26T15:11:52.514Z,52.84
2019-05-26T15:14:19.294Z,52.61
2019-05-26T15:16:46.116Z,57.57
2019-05-26T15:19:12.838Z,57.71
2019-05-26T15:21:40.583Z,55.29
2019-05-26T15:24:07.350Z,55.87
2019-05-26T15:26:34.110Z,56.90
2019-05-26T15:29:00.940Z,52.09
2019-05-26T15:31:27.770Z,56.60
2019-05-26T15:33:54.480Z,50.48
2019-05-26T15:36:21.242Z,53.22
2019-05-26T15:38:48.111Z,57.30
2019-05-26T15:41:15.232Z,50.02
2019-05-26T15:43:41.955Z,52.41
2019-05-26T15:46:23.910Z,56.20
2019-05-26T15:48:38.782Z,58.50
2019-05-26T15:51:05.503Z,57.65
2019-05-26T15:53:32.806Z,51.21
2019-05-26T15:55:59.755Z,56.89
2019-05-26T15:58:26.549Z,55.41
2019-05-26T16:00:53.242Z,55.08
2019-05-26T16:03:20.172Z,54.47
2019-05-26T16:05:46.882Z,54.09
2019-05-26T16:08:13.651Z,53.30
2019-05-26T16:10:40.411Z,51.24
2019-05-26T16:13:07.121Z,50.20
2019-05-26T16:15:33.976Z,48.85
2019-05-26T16:18:00.667Z,54.22
2019-05-26T16:20:27.501Z,55.74
2019-05-26T16:22:54.287Z,54.35
2019-05-26T16:25:21.083Z,58.22
2019-05-26T16:27:47.998Z,57.77
2019-05-26T16:30:15.424Z,55.84
2019-05-26T16:32:42.213Z,58.54
2019-05-26T16:35:09.748Z,55.92
2019-05-26T16:37:36.551Z,60.46
2019-05-26T16:40:04.412Z,60.95
2019-05-26T16:42:31.188Z,61.08
2019-05-26T16:44:57.926Z,61.96
2019-05-26T16:47:24.599Z,62.55
2019-05-26T16:49:51.434Z,61.23
2019-05-26T16:52:18.192Z,60.62
2019-05-26T16:54:44.968Z,62.97
2019-05-26T16:57:11.664Z,63.36
2019-05-26T16:59:38.337Z,63.08
2019-05-26T17:02:06.752Z,63.88
2019-05-26T17:04:33.637Z,66.91
2019-05-26T17:07:00.475Z,67.65
2019-05-26T17:09:27.424Z,66.15
2019-05-26T17:11:54.125Z,65.41
2019-05-26T17:14:21.071Z,66.91
2019-05-26T17:16:47.882Z,68.41
2019-05-26T17:19:14.596Z,68.71
2019-05-26T17:21:41.381Z,69.13
2019-05-26T17:24:10.040Z,69.14
2019-05-26T17:26:36.838Z,69.39
2019-05-26T17:29:03.529Z,68.68
2019-05-26T17:31:30.441Z,69.85
2019-05-26T17:33:57.136Z,70.82
2019-05-26T17:36:24.003Z,71.56
2019-05-26T17:38:50.825Z,71.27
2019-05-26T17:41:17.532Z,71.96
2019-05-26T17:43:44.287Z,72.27
2019-05-26T17:46:11.084Z,73.69
2019-05-26T17:48:37.854Z,73.54
2019-05-26T17:51:04.863Z,73.65
2019-05-26T17:53:31.565Z,73.91
2019-05-26T17:55:58.257Z,74.33
2019-05-26T17:58:25.031Z,74.65
2019-05-26T18:00:51.809Z,75.24
2019-05-26T18:03:18.666Z,75.22
2019-05-26T18:05:45.515Z,74.31
2019-05-26T18:08:12.374Z,74.58
2019-05-26T18:10:39.152Z,75.45
2019-05-26T18:13:05.861Z,75.88
2019-05-26T18:15:32.627Z,75.23
2019-05-26T18:17:59.565Z,75.53
2019-05-26T18:20:26.451Z,76.76
2019-05-26T18:22:53.282Z,76.12
2019-05-26T18:25:20.153Z,76.94
2019-05-26T18:27:46.966Z,76.92
2019-05-26T18:30:14.270Z,76.79
2019-05-26T18:32:41.225Z,77.70
2019-05-26T18:35:08.382Z,77.94
2019-05-26T18:37:36.134Z,77.94
2019-05-26T18:40:04.708Z,77.94
2019-05-26T18:42:31.492Z,78.32
2019-05-26T18:44:58.249Z,78.38
2019-05-26T18:47:24.966Z,78.56
2019-05-26T18:49:51.809Z,79.03
2019-05-26T18:52:18.568Z,78.85
2019-05-26T18:54:45.335Z,79.35
2019-05-26T18:57:13.150Z,79.61
2019-05-26T18:59:40.056Z,79.42
2019-05-26T19:02:07.015Z,79.38
2019-05-26T19:04:33.732Z,80.02
2019-05-26T19:07:00.487Z,79.89
2019-05-26T19:09:27.244Z,80.06
2019-05-26T19:11:53.924Z,80.54
2019-05-26T19:14:20.636Z,80.07
2019-05-26T19:16:47.380Z,80.72
2019-05-26T19:19:14.153Z,81.11
2019-05-26T19:21:41.567Z,80.66
2019-05-26T19:24:08.406Z,80.78
2019-05-26T19:26:35.115Z,80.50
2019-05-26T19:29:02.093Z,80.15
2019-05-26T19:31:28.792Z,79.93
2019-05-26T19:33:55.594Z,81.39
2019-05-26T19:36:22.274Z,80.59
2019-05-26T19:38:49.119Z,81.03
2019-05-26T19:41:15.955Z,81.22
2019-05-26T19:43:42.968Z,80.48
2019-05-26T19:46:09.686Z,80.80
2019-05-26T19:48:37.340Z,80.29
2019-05-26T19:51:04.490Z,80.90
2019-05-26T19:53:31.344Z,81.71
2019-05-26T19:55:58.121Z,81.64
2019-05-26T19:58:28.426Z,81.64
2019-05-26T20:00:53.850Z,81.25
2019-05-26T20:03:20.868Z,82.88
2019-05-26T20:05:47.633Z,81.94
2019-05-26T20:08:14.531Z,82.72
2019-05-26T20:10:41.280Z,82.36
2019-05-26T20:13:08.185Z,81.81
2019-05-26T20:15:36.181Z,82.18
2019-05-26T20:18:03.459Z,82.52
2019-05-26T20:20:30.341Z,83.26
2019-05-26T20:22:57.146Z,82.59
2019-05-26T20:25:23.901Z,81.88
2019-05-26T20:27:50.679Z,83.17
2019-05-26T20:30:21.123Z,82.57
2019-05-26T20:32:46.179Z,81.77
2019-05-26T20:35:13.361Z,82.31
2019-05-26T20:37:40.327Z,81.89
2019-05-26T20:40:08.484Z,81.98
2019-05-26T20:42:35.457Z,81.18
2019-05-26T20:45:04.271Z,81.48
2019-05-26T20:47:31.085Z,81.68
2019-05-26T20:49:57.894Z,81.22
2019-05-26T20:52:24.666Z,82.07
2019-05-26T20:54:51.396Z,81.84
2019-05-26T20:57:18.287Z,82.14
2019-05-26T20:59:44.969Z,81.47
2019-05-26T21:02:11.685Z,81.76
2019-05-26T21:04:38.392Z,82.09
2019-05-26T21:07:05.316Z,83.04
2019-05-26T21:09:32.049Z,82.75
2019-05-26T21:11:58.865Z,82.36
2019-05-26T21:14:26.634Z,82.52
2019-05-26T21:16:53.569Z,82.51
2019-05-26T21:19:20.254Z,83.17
2019-05-26T21:21:47.025Z,82.69
2019-05-26T21:24:13.784Z,82.95
2019-05-26T21:26:40.538Z,83.39
2019-05-26T21:29:07.322Z,83.35
2019-05-26T21:31:34.083Z,82.94
2019-05-26T21:34:00.809Z,82.35
2019-05-26T21:36:27.652Z,82.59
2019-05-26T21:38:54.488Z,82.86
2019-05-26T21:41:21.232Z,81.57
2019-05-26T21:43:47.946Z,82.48
2019-05-26T21:46:14.846Z,82.99
2019-05-26T21:48:41.574Z,83.17
2019-05-26T21:51:08.244Z,82.77
2019-05-26T21:53:35.186Z,83.26
2019-05-26T21:56:01.904Z,82.09
2019-05-26T21:58:28.667Z,81.93
2019-05-26T22:00:55.754Z,82.45
2019-05-26T22:03:23.632Z,82.61
2019-05-26T22:05:50.446Z,81.73
2019-05-26T22:08:17.288Z,82.08
2019-05-26T22:10:44.118Z,81.83
2019-05-26T22:13:10.964Z,82.16
2019-05-26T22:15:37.686Z,82.43
2019-05-26T22:18:04.903Z,82.81
2019-05-26T22:20:31.746Z,82.76
2019-05-26T22:22:58.432Z,83.52
2019-05-26T22:25:25.165Z,83.37
2019-05-26T22:27:52.182Z,83.40
2019-05-26T22:30:19.174Z,83.52
2019-05-26T22:32:45.944Z,83.85
2019-05-26T22:35:12.773Z,83.39
2019-05-26T22:37:39.475Z,83.14
2019-05-26T22:40:06.685Z,83.60
2019-05-26T22:42:33.450Z,84.09
2019-05-26T22:45:00.229Z,83.67
2019-05-26T22:47:27.163Z,83.21
2019-05-26T22:49:55.940Z,83.19
2019-05-26T22:52:22.633Z,83.29
2019-05-26T22:54:49.409Z,83.33
2019-05-26T22:57:16.150Z,82.35
2019-05-26T22:59:42.868Z,82.77
2019-05-26T23:02:09.557Z,83.04
2019-05-26T23:04:36.296Z,82.65
2019-05-26T23:07:03.118Z,82.65
2019-05-26T23:09:29.813Z,82.55
2019-05-26T23:11:56.665Z,82.85
2019-05-26T23:14:23.439Z,83.22
2019-05-26T23:16:51.715Z,83.14
2019-05-26T23:19:20.070Z,83.29
2019-05-26T23:21:48.279Z,83.32
2019-05-26T23:24:15.029Z,83.25
2019-05-26T23:26:41.913Z,83.63
2019-05-26T23:29:08.718Z,83.55
2019-05-26T23:31:35.430Z,83.86
2019-05-26T23:34:02.126Z,84.05
2019-05-26T23:36:28.796Z,83.72
2019-05-26T23:38:55.594Z,84.06
2019-05-26T23:41:23.432Z,83.90
2019-05-26T23:43:50.221Z,84.05
2019-05-26T23:46:16.965Z,84.19
2019-05-26T23:48:44.300Z,83.83
2019-05-26T23:51:11.127Z,83.59
2019-05-26T23:53:37.951Z,83.27
2019-05-26T23:56:05.078Z,83.49
2019-05-26T23:58:31.943Z,82.70
